West Allis, Wisconsin
Current Conditions -  °F | °C
As of 6:45 AM on Sunday 21 Dec 2014 (Local Time) from KMWC Reporting Station
Haze Haze  
Wind Chill: 26°   Ceiling: 2700
Heat Index: 32°   Visibility: 5mi
Dew Point: 27°   Wind: 7mph
Humidity: 80%   Direction: 170°S
Pressure: 30.18"   Gusts: NA
Location:  43.02°N, 88.01°W
Report Text: KMWC 211245Z AUTO 17006KT 5SM HZ BKN027 OVC038 00/M03 A3018 RMK FIRST
Loading
Personal Weather Stations






























Interactive Weather Map New forecast layout! Learn more

10-Day Weather Forecast

Advertisements
Track Severe Weather on mobile